Time;durP1;ratioP1;P1;durP2;ratioP2;P2;SDS_P1;SDS_P2;PMS_P1;PMS_P2;Temp;Humidity;BMP_temperature;BMP_pressure;BME280_temperature;BME280_humidity;BME280_pressure;Samples;Min_cycle;Max_cycle;Signal;HPM_P1;HPM_P2
2022/08/20 00:00:35;;;;;;;9.77;4.63;;;29.00;61.30;;;;;;5113906;28;20030;-75
2022/08/20 00:03:06;;;;;;;7.63;4.28;;;29.00;61.30;;;;;;5113887;28;20016;-75
2022/08/20 00:05:36;;;;;;;9.57;4.07;;;29.00;61.30;;;;;;5113632;28;20756;-76
2022/08/20 00:08:03;;;;;;;11.07;4.63;;;28.90;60.80;;;;;;5113846;28;20047;-75
2022/08/20 00:10:31;;;;;;;5.35;4.00;;;29.00;61.40;;;;;;5077631;28;20139;-75
2022/08/20 00:12:58;;;;;;;4.00;3.50;;;29.00;61.40;;;;;;5113616;28;20147;-76
2022/08/20 00:15:28;;;;;;;8.73;4.30;;;29.00;61.40;;;;;;5113421;28;20043;-75
2022/08/20 00:17:56;;;;;;;6.47;3.90;;;28.70;60.90;;;;;;5095528;28;20031;-75
2022/08/20 00:20:27;;;;;;;11.00;4.40;;;29.00;61.50;;;;;;5113815;28;20093;-75
2022/08/20 00:22:53;;;;;;;10.43;4.57;;;29.00;61.40;;;;;;5113288;28;20024;-74
2022/08/20 00:25:19;;;;;;;4.57;4.00;;;29.00;61.50;;;;;;5095049;28;20123;-76
2022/08/20 00:27:45;;;;;;;7.72;3.80;;;29.00;61.50;;;;;;5108601;28;20101;-75
2022/08/20 00:30:12;;;;;;;8.20;4.82;;;29.00;61.50;;;;;;5093087;28;20472;-76
2022/08/20 00:32:54;;;;;;;7.45;4.50;;;29.10;61.40;;;;;;5092763;28;20035;-75
2022/08/20 00:35:24;;;;;;;8.60;3.88;;;29.10;61.40;;;;;;5092808;28;20085;-76
2022/08/20 00:37:50;;;;;;;11.65;4.15;;;29.00;61.40;;;;;;5074768;28;20126;-76
2022/08/20 00:40:20;;;;;;;7.45;3.83;;;29.00;61.50;;;;;;5092698;28;20043;-76
2022/08/20 00:42:58;;;;;;;8.48;4.38;;;29.00;61.50;;;;;;5092799;28;20064;-76
2022/08/20 00:45:28;;;;;;;7.93;3.67;;;29.00;61.50;;;;;;5074455;28;20039;-75
2022/08/20 00:47:56;;;;;;;11.48;3.80;;;28.90;60.90;;;;;;5056680;28;20493;-76
2022/08/20 00:50:35;;;;;;;7.35;3.70;;;28.90;60.90;;;;;;5092568;28;20031;-75
2022/08/20 00:53:03;;;;;;;9.05;4.18;;;28.90;61.00;;;;;;5092121;28;20434;-76
2022/08/20 00:55:31;;;;;;;5.57;3.78;;;28.90;60.90;;;;;;5092395;28;20481;-75
2022/08/20 00:58:03;;;;;;;5.93;4.35;;;29.00;61.50;;;;;;5092478;28;20034;-76
2022/08/20 01:00:36;;;;;;;6.20;4.63;;;28.80;60.90;;;;;;5092588;28;20028;-75
2022/08/20 01:03:08;;;;;;;7.45;4.00;;;28.80;61.00;;;;;;5092396;28;20040;-75
2022/08/20 01:05:39;;;;;;;6.30;4.03;;;28.90;61.00;;;;;;5092376;28;20491;-75
2022/08/20 01:08:06;;;;;;;4.75;3.53;;;28.90;61.00;;;;;;5092594;28;20582;-75
2022/08/20 01:10:36;;;;;;;4.28;3.50;;;28.90;61.00;;;;;;5074226;28;20063;-75
2022/08/20 01:13:08;;;;;;;5.38;3.08;;;28.90;61.00;;;;;;5074435;28;20043;-76
2022/08/20 01:15:38;;;;;;;4.38;3.90;;;28.90;61.00;;;;;;5092275;28;20047;-75
2022/08/20 01:18:06;;;;;;;5.30;3.83;;;28.80;61.00;;;;;;5092256;28;20044;-76
2022/08/20 01:20:43;;;;;;;9.10;4.55;;;28.90;61.00;;;;;;5092067;28;20111;-75
2022/08/20 01:23:38;;;;;;;6.22;4.15;;;29.10;61.50;;;;;;5092301;28;20479;-76
2022/08/20 01:26:29;;;;;;;8.98;4.25;;;29.00;61.50;;;;;;5091935;28;20040;-76
2022/08/20 01:29:00;;;;;;;5.40;4.20;;;29.00;61.50;;;;;;5092075;28;20059;-76
2022/08/20 01:31:47;;;;;;;6.97;4.18;;;29.10;61.50;;;;;;5029440;28;20080;-75
2022/08/20 01:34:15;;;;;;;12.05;4.38;;;28.90;60.90;;;;;;5029624;28;20045;-76
2022/08/20 01:36:53;;;;;;;7.50;4.32;;;29.00;61.50;;;;;;5029183;28;20045;-75
2022/08/20 01:39:37;;;;;;;11.18;4.00;;;28.90;61.00;;;;;;5013322;28;20486;-75
2022/08/20 01:42:06;;;;;;;6.57;3.53;;;28.80;61.00;;;;;;5029503;28;20053;-75
2022/08/20 01:44:34;;;;;;;6.55;3.75;;;28.80;61.00;;;;;;5029632;28;20370;-75
2022/08/20 01:47:20;;;;;;;6.93;3.65;;;28.90;61.00;;;;;;5029522;28;20052;-75
2022/08/20 01:49:50;;;;;;;5.38;3.53;;;28.80;61.00;;;;;;5029307;28;20061;-75
2022/08/20 01:52:40;;;;;;;5.32;3.85;;;28.80;60.90;;;;;;5029456;28;20038;-76
2022/08/20 01:55:08;;;;;;;9.35;4.05;;;28.80;60.90;;;;;;5029103;28;20076;-76
2022/08/20 01:57:36;;;;;;;4.88;4.00;;;28.80;60.90;;;;;;5012936;28;20052;-76
2022/08/20 02:00:07;;;;;;;9.48;4.60;;;28.80;60.90;;;;;;5029224;28;20037;-76
2022/08/20 02:02:34;;;;;;;3.80;3.23;;;28.80;61.00;;;;;;5037554;28;20471;-75
2022/08/20 02:05:00;;;;;;;3.72;3.35;;;28.90;61.00;;;;;;5093419;28;20276;-75
2022/08/20 02:07:30;;;;;;;9.57;4.97;;;28.80;60.90;;;;;;5095498;28;20035;-75
2022/08/20 02:09:56;;;;;;;6.10;3.47;;;28.90;60.90;;;;;;5095516;28;20032;-76
2022/08/20 02:12:22;;;;;;;9.32;4.45;;;28.70;60.90;;;;;;5095715;28;20043;-75
2022/08/20 02:14:52;;;;;;;7.35;3.83;;;28.90;60.90;;;;;;5095569;28;20039;-75
2022/08/20 02:17:21;;;;;;;12.98;4.25;;;28.90;60.90;;;;;;5095351;28;20043;-75
2022/08/20 02:20:01;;;;;;;7.22;4.22;;;28.80;60.90;;;;;;5095423;28;20040;-76
2022/08/20 02:22:48;;;;;;;9.38;3.95;;;28.80;60.90;;;;;;5095402;28;20032;-75
2022/08/20 02:25:15;;;;;;;6.32;4.13;;;28.80;60.90;;;;;;5095024;28;20035;-75
2022/08/20 02:27:47;;;;;;;7.68;4.03;;;28.90;60.80;;;;;;5095105;28;20081;-76
2022/08/20 02:30:24;;;;;;;6.25;4.00;;;28.80;60.80;;;;;;5095087;28;20454;-76
2022/08/20 02:32:50;;;;;;;6.78;4.28;;;28.80;60.80;;;;;;5095106;28;20036;-75
2022/08/20 02:35:17;;;;;;;4.50;4.10;;;28.80;60.80;;;;;;5095039;28;20036;-75
2022/08/20 02:37:44;;;;;;;10.02;4.15;;;28.90;60.80;;;;;;5095106;28;20085;-76
2022/08/20 02:40:16;;;;;;;9.02;4.43;;;28.90;60.70;;;;;;5095209;28;20020;-75
2022/08/20 02:42:42;;;;;;;8.25;4.40;;;28.80;60.80;;;;;;5095045;28;20043;-75
2022/08/20 02:45:15;;;;;;;7.50;3.45;;;28.90;60.70;;;;;;5095105;28;20028;-76
2022/08/20 02:47:43;;;;;;;;;;;28.70;60.80;;;;;;5095203;28;20472;-75
2022/08/20 02:50:13;;;;;;;9.27;3.72;;;28.70;60.80;;;;;;5095055;28;19950;-75
2022/08/20 02:52:40;;;;;;;8.15;3.92;;;28.70;60.70;;;;;;5076831;28;20088;-76
2022/08/20 02:55:08;;;;;;;6.68;3.83;;;28.80;60.70;;;;;;5094829;28;20040;-75
2022/08/20 02:57:35;;;;;;;4.82;3.83;;;28.70;60.70;;;;;;5094594;28;20035;-75
2022/08/20 03:00:02;;;;;;;10.98;3.63;;;28.80;60.80;;;;;;5094989;28;20086;-75
2022/08/20 03:02:29;;;;;;;5.07;4.28;;;28.80;60.90;;;;;;5076617;28;20047;-76
2022/08/20 03:04:55;;;;;;;4.50;4.03;;;28.70;60.90;;;;;;5094532;28;20036;-76
2022/08/20 03:07:21;;;;;;;8.88;4.05;;;28.80;60.90;;;;;;5094452;28;20040;-76
2022/08/20 03:09:47;;;;;;;4.28;3.70;;;28.70;60.90;;;;;;5042246;28;20383;-75
2022/08/20 03:12:13;;;;;;;6.88;4.90;;;28.80;60.90;;;;;;5094310;28;20027;-75
2022/08/20 03:14:39;;;;;;;9.63;4.72;;;28.80;60.80;;;;;;5094578;28;20522;-75
2022/08/20 03:17:05;;;;;;;10.88;4.57;;;28.80;60.90;;;;;;5094313;28;20047;-76
2022/08/20 03:19:31;;;;;;;5.63;3.95;;;28.90;60.80;;;;;;5076130;28;20035;-76
2022/08/20 03:21:57;;;;;;;12.52;4.50;;;28.90;60.80;;;;;;5042103;28;20615;-76
2022/08/20 03:24:23;;;;;;;9.18;4.05;;;28.90;60.80;;;;;;5094150;28;20491;-75
2022/08/20 03:26:49;;;;;;;7.50;4.55;;;28.80;60.80;;;;;;5094322;28;20103;-76
2022/08/20 03:29:16;;;;;;;7.90;4.57;;;28.90;60.80;;;;;;5094360;28;20077;-75
2022/08/20 03:31:42;;;;;;;8.63;4.03;;;28.80;60.80;;;;;;5094037;28;20067;-75
2022/08/20 03:34:08;;;;;;;6.82;4.32;;;28.90;60.70;;;;;;5075787;28;20064;-75
2022/08/20 03:36:34;;;;;;;5.40;4.05;;;28.90;60.70;;;;;;5093926;28;20540;-75
2022/08/20 03:39:03;;;;;;;8.43;4.07;;;28.80;60.70;;;;;;5075830;28;20111;-75
2022/08/20 03:41:31;;;;;;;6.25;4.45;;;28.90;60.70;;;;;;5093719;28;20024;-76
2022/08/20 03:43:57;;;;;;;6.53;4.70;;;28.70;60.70;;;;;;5093777;28;20043;-75
2022/08/20 03:46:24;;;;;;;5.30;4.43;;;28.90;60.70;;;;;;5093446;28;20040;-76
2022/08/20 03:48:51;;;;;;;8.65;4.78;;;28.70;60.70;;;;;;5041282;28;20170;-75
2022/08/20 03:51:17;;;;;;;7.20;4.95;;;28.80;60.70;;;;;;5093513;28;20040;-76
2022/08/20 03:53:44;;;;;;;5.78;4.18;;;28.70;60.70;;;;;;5093694;28;20139;-75
2022/08/20 03:56:10;;;;;;;10.07;4.22;;;28.70;60.70;;;;;;5093283;28;20407;-75
2022/08/20 03:58:36;;;;;;;7.25;4.68;;;28.70;60.70;;;;;;5075445;28;20088;-76
2022/08/20 04:01:06;;;;;;;8.23;4.38;;;28.80;60.70;;;;;;5093345;28;20114;-75
2022/08/20 04:03:32;;;;;;;7.65;4.00;;;28.60;60.70;;;;;;5093423;28;20715;-76
2022/08/20 04:05:58;;;;;;;7.50;5.32;;;28.70;60.80;;;;;;5075211;28;20043;-76
2022/08/20 04:08:31;;;;;;;5.25;3.90;;;28.70;60.70;;;;;;5092946;28;20028;-75
2022/08/20 04:10:58;;;;;;;;;;;28.70;60.70;;;;;;5074776;28;20063;-76
2022/08/20 04:13:26;;;;;;;11.30;5.10;;;28.70;60.70;;;;;;5093287;28;19931;-76
2022/08/20 04:15:56;;;;;;;5.35;4.10;;;28.80;60.70;;;;;;5093164;28;20024;-75
2022/08/20 04:18:24;;;;;;;5.78;5.07;;;28.70;60.70;;;;;;5093013;28;20145;-75
2022/08/20 04:20:52;;;;;;;9.07;5.40;;;28.70;60.70;;;;;;5093232;28;20053;-75
2022/08/20 04:23:20;;;;;;;9.43;5.07;;;28.80;60.70;;;;;;5093106;28;20025;-76
2022/08/20 04:25:46;;;;;;;8.55;4.85;;;28.70;60.60;;;;;;5075124;28;20059;-76
2022/08/20 04:28:27;;;;;;;12.23;4.43;;;28.70;60.70;;;;;;5092029;28;20067;-76
2022/08/20 04:30:59;;;;;;;9.40;4.47;;;28.70;60.60;;;;;;5075009;28;20087;-76
2022/08/20 04:33:27;;;;;;;6.20;5.45;;;28.80;60.60;;;;;;5092773;28;20024;-76
2022/08/20 04:35:54;;;;;;;11.02;4.32;;;28.80;60.60;;;;;;5092889;28;20024;-76
2022/08/20 04:38:21;;;;;;;9.63;5.40;;;28.90;60.60;;;;;;5092646;28;20032;-76
2022/08/20 04:40:57;;;;;;;10.63;6.28;;;28.70;60.60;;;;;;5042118;28;20048;-76
2022/08/20 04:43:32;;;;;;;6.03;5.43;;;28.70;60.60;;;;;;5074587;28;20043;-75
2022/08/20 04:46:01;;;;;;;7.35;5.50;;;28.70;60.50;;;;;;5092373;28;20289;-75
2022/08/20 04:48:28;;;;;;;7.30;5.40;;;28.70;60.60;;;;;;5092254;28;20028;-75
2022/08/20 04:50:56;;;;;;;8.55;4.88;;;28.80;60.50;;;;;;5092622;28;20047;-75
2022/08/20 04:53:24;;;;;;;9.50;5.70;;;28.70;60.50;;;;;;5077117;28;20634;-75
2022/08/20 04:55:52;;;;;;;9.95;6.22;;;28.70;60.40;;;;;;5081015;28;20107;-74
2022/08/20 04:58:21;;;;;;;2.83;2.47;;;28.60;60.10;;;;;;5082385;28;20077;-74
2022/08/20 05:00:49;;;;;;;3.70;2.25;;;28.70;60.30;;;;;;5080549;28;20063;-73
2022/08/20 05:03:16;;;;;;;2.17;2.00;;;28.80;60.30;;;;;;5080373;28;20089;-74
2022/08/20 05:05:44;;;;;;;4.28;3.25;;;28.70;60.20;;;;;;5079830;28;20052;-74
2022/08/20 05:08:11;;;;;;;3.92;3.13;;;28.80;60.70;;;;;;5076855;28;20120;-73
2022/08/20 05:10:38;;;;;;;2.10;1.45;;;28.90;60.00;;;;;;5054920;28;20115;-73
2022/08/20 05:13:05;;;;;;;5.70;2.75;;;28.70;59.40;;;;;;5089227;28;20114;-74
2022/08/20 05:15:32;;;;;;;1.95;1.85;;;28.70;58.90;;;;;;5092613;28;20044;-74
2022/08/20 05:18:01;;;;;;;11.48;4.55;;;28.80;58.60;;;;;;5078087;28;20033;-74
2022/08/20 05:20:30;;;;;;;2.85;1.60;;;28.80;58.40;;;;;;5072759;28;20037;-73
2022/08/20 05:22:57;;;;;;;9.65;4.32;;;28.80;58.20;;;;;;5054510;28;20139;-74
2022/08/20 05:25:23;;;;;;;5.45;4.30;;;28.70;57.80;;;;;;5072188;28;20036;-72
2022/08/20 05:27:55;;;;;;;5.88;2.80;;;28.80;57.80;;;;;;5077605;28;20433;-73
2022/08/20 05:30:22;;;;;;;4.15;3.10;;;28.80;57.80;;;;;;5094761;28;20126;-74
2022/08/20 05:32:48;;;;;;;3.97;2.47;;;28.80;57.70;;;;;;5092474;28;20490;-74
2022/08/20 05:35:14;;;;;;;1.88;1.77;;;28.70;57.50;;;;;;5104567;28;20024;-74
2022/08/20 05:37:40;;;;;;;2.90;2.65;;;28.90;57.80;;;;;;5104874;28;20032;-74
2022/08/20 05:40:09;;;;;;;2.75;2.55;;;28.80;57.80;;;;;;5114043;28;20462;-74
2022/08/20 05:42:36;;;;;;;10.90;6.22;;;28.90;57.80;;;;;;5092438;28;20067;-74
2022/08/20 05:45:03;;;;;;;7.15;5.20;;;28.80;58.00;;;;;;5115473;28;20429;-74
2022/08/20 05:47:30;;;;;;;8.50;5.63;;;28.80;58.60;;;;;;5106621;28;20071;-72
2022/08/20 05:49:56;;;;;;;11.13;5.82;;;28.90;58.90;;;;;;5112984;28;20142;-73
2022/08/20 05:52:22;;;;;;;10.60;5.78;;;28.80;59.30;;;;;;5094216;28;20024;-72
2022/08/20 05:54:49;;;;;;;12.00;6.07;;;28.80;59.40;;;;;;5076965;28;20048;-71
2022/08/20 05:57:18;;;;;;;10.85;6.57;;;28.80;59.50;;;;;;5107642;28;20050;-72
2022/08/20 05:59:45;;;;;;;12.45;5.53;;;28.90;59.80;;;;;;5112831;28;20028;-73
2022/08/20 06:05:04;;;;;;;14.03;6.37;;;29.00;60.60;;;;;;5030016;28;20061;-71
2022/08/20 06:07:30;;;;;;;9.55;6.60;;;29.00;60.60;;;;;;5048873;28;20045;-75
2022/08/20 06:09:56;;;;;;;9.95;5.00;;;29.00;60.60;;;;;;5049963;28;20147;-72
2022/08/20 06:12:22;;;;;;;10.27;5.32;;;29.00;60.70;;;;;;5047275;28;20120;-72
2022/08/20 06:14:48;;;;;;;13.57;6.03;;;28.90;60.10;;;;;;4982942;28;20549;-76
2022/08/20 06:17:16;;;;;;;10.80;5.50;;;29.00;60.10;;;;;;5046609;28;20052;-73
2022/08/20 06:19:44;;;;;;;12.20;5.85;;;28.80;59.00;;;;;;5017243;28;20409;-74
2022/08/20 06:22:11;;;;;;;9.25;5.97;;;28.90;59.00;;;;;;5032197;28;20430;-73
2022/08/20 06:24:37;;;;;;;16.15;6.22;;;28.80;58.50;;;;;;5048074;28;20044;-73
2022/08/20 06:27:05;;;;;;;7.97;5.20;;;28.80;58.70;;;;;;5046565;28;20025;-74
2022/08/20 06:29:34;;;;;;;12.88;5.28;;;28.70;58.50;;;;;;5031795;28;20136;-74
2022/08/20 06:32:00;;;;;;;11.98;5.45;;;28.80;58.10;;;;;;5027719;28;20021;-73
2022/08/20 06:34:27;;;;;;;15.27;5.53;;;28.80;58.90;;;;;;5052272;28;20033;-74
2022/08/20 06:36:55;;;;;;;12.80;6.43;;;28.80;58.60;;;;;;5022270;28;20111;-75
2022/08/20 06:39:23;;;;;;;11.93;5.80;;;28.80;58.60;;;;;;5016562;28;20049;-75
2022/08/20 06:41:50;;;;;;;7.40;5.32;;;28.80;58.50;;;;;;5016940;28;20084;-73
2022/08/20 06:44:17;;;;;;;14.82;7.10;;;28.80;58.40;;;;;;5040090;28;20033;-75
2022/08/20 06:46:44;;;;;;;16.25;5.70;;;28.80;58.20;;;;;;5040178;28;20052;-74
2022/08/20 06:49:10;;;;;;;14.25;5.93;;;28.80;58.30;;;;;;5050516;28;20039;-74
2022/08/20 06:51:36;;;;;;;10.93;5.40;;;28.80;58.30;;;;;;5051574;28;20040;-74
2022/08/20 06:54:05;;;;;;;9.23;5.95;;;28.70;58.40;;;;;;5052293;28;20079;-74
2022/08/20 06:56:32;;;;;;;8.40;5.90;;;28.80;58.50;;;;;;5051930;28;20045;-74
2022/08/20 06:58:58;;;;;;;7.72;6.18;;;28.90;58.60;;;;;;5051678;28;20037;-74
2022/08/20 07:01:24;;;;;;;10.98;5.72;;;28.70;58.60;;;;;;5051589;28;20036;-74
2022/08/20 07:03:51;;;;;;;16.20;5.95;;;28.70;58.70;;;;;;5051651;28;20094;-74
2022/08/20 07:06:17;;;;;;;17.30;6.65;;;28.80;58.80;;;;;;5051596;28;20044;-74
2022/08/20 07:08:44;;;;;;;8.35;5.78;;;28.80;58.80;;;;;;5087303;28;20135;-74
2022/08/20 07:11:11;;;;;;;13.57;6.22;;;28.90;58.80;;;;;;5094261;28;20063;-73
2022/08/20 07:13:37;;;;;;;10.55;6.28;;;28.80;58.70;;;;;;5094049;28;20059;-74
2022/08/20 07:16:05;;;;;;;12.02;5.70;;;28.80;58.80;;;;;;5094146;28;20031;-74
2022/08/20 07:18:32;;;;;;;11.27;6.00;;;28.90;58.80;;;;;;5093932;28;20145;-73
2022/08/20 07:20:58;;;;;;;15.65;5.85;;;29.00;59.30;;;;;;5094316;28;20032;-74
2022/08/20 07:23:25;;;;;;;15.65;6.95;;;29.00;59.40;;;;;;5093761;28;20408;-76
2022/08/20 07:25:51;;;;;;;15.85;5.70;;;28.80;58.90;;;;;;5094028;28;20103;-74
2022/08/20 07:28:21;;;;;;;10.35;5.25;;;29.00;59.40;;;;;;5084726;28;20064;-73
2022/08/20 07:33:34;;;;;;;8.85;5.95;;;29.00;59.40;;;;;;5073365;28;20036;-74
2022/08/20 07:36:03;;;;;;;13.65;5.80;;;28.90;58.90;;;;;;5072126;28;20082;-74
2022/08/20 07:38:30;;;;;;;8.23;5.57;;;29.00;59.40;;;;;;5073070;28;20025;-74
2022/08/20 07:41:08;;;;;;;9.32;6.03;;;29.10;59.40;;;;;;5030685;28;20579;-74
2022/08/20 07:43:34;;;;;;;6.22;4.97;;;29.00;59.40;;;;;;5030540;28;20041;-74
2022/08/20 07:46:06;;;;;;;8.07;5.55;;;29.10;59.40;;;;;;5030722;28;20041;-74
2022/08/20 07:48:34;;;;;;;11.45;5.85;;;29.10;59.50;;;;;;5013846;28;20075;-74
2022/08/20 07:51:03;;;;;;;7.18;5.40;;;29.20;59.50;;;;;;5030727;28;20053;-74
2022/08/20 07:53:30;;;;;;;8.07;5.22;;;29.10;59.50;;;;;;5030530;28;20457;-74
2022/08/20 07:55:56;;;;;;;13.57;5.40;;;29.10;59.50;;;;;;5030478;28;20045;-74
2022/08/20 07:58:23;;;;;;;9.23;5.25;;;29.10;59.50;;;;;;5030300;28;20045;-74
2022/08/20 08:00:50;;;;;;;11.00;5.10;;;29.10;59.50;;;;;;5030498;28;20113;-74
2022/08/20 08:03:17;;;;;;;10.18;5.22;;;29.10;59.50;;;;;;5013350;28;20033;-74
2022/08/20 08:05:46;;;;;;;11.90;5.55;;;29.30;59.50;;;;;;5030244;28;20506;-74
2022/08/20 08:08:18;;;;;;;6.60;4.88;;;29.10;59.50;;;;;;5030244;28;20037;-74
2022/08/20 08:10:47;;;;;;;12.77;4.22;;;29.20;59.50;;;;;;5030517;28;20846;-74
2022/08/20 08:13:31;;;;;;;9.75;4.07;;;29.20;59.50;;;;;;5072647;28;20043;-74
2022/08/20 08:16:00;;;;;;;8.48;4.53;;;29.00;59.50;;;;;;5072268;28;20033;-74
2022/08/20 08:18:32;;;;;;;6.15;4.68;;;29.10;59.30;;;;;;5072227;28;20028;-74
2022/08/20 08:20:58;;;;;;;6.63;4.57;;;29.20;59.50;;;;;;5072362;28;20034;-74
2022/08/20 08:23:25;;;;;;;8.75;4.95;;;29.20;59.50;;;;;;5072430;28;20032;-74
2022/08/20 08:25:51;;;;;;;10.43;5.38;;;29.20;59.40;;;;;;5072245;28;20028;-74
2022/08/20 08:28:19;;;;;;;12.38;4.50;;;29.10;59.50;;;;;;5072206;28;20381;-74
2022/08/20 08:30:47;;;;;;;6.63;5.45;;;29.30;59.40;;;;;;5072107;28;20396;-74
2022/08/20 08:33:27;;;;;;;7.07;5.38;;;29.10;59.30;;;;;;5072309;28;20119;-74
2022/08/20 08:36:00;;;;;;;6.45;4.80;;;29.10;59.30;;;;;;5072016;28;20442;-74
2022/08/20 08:38:26;;;;;;;7.57;5.82;;;29.40;59.30;;;;;;5072059;28;20032;-74
2022/08/20 08:40:56;;;;;;;8.07;5.00;;;29.20;59.30;;;;;;5071958;28;20040;-74
2022/08/20 08:43:24;;;;;;;7.95;4.85;;;29.20;59.20;;;;;;5072069;28;20110;-74
2022/08/20 08:46:00;;;;;;;8.00;5.50;;;29.20;59.30;;;;;;5071823;28;20028;-75
2022/08/20 08:48:36;;;;;;;10.38;5.60;;;29.20;59.10;;;;;;5054051;28;20024;-74
2022/08/20 08:51:10;;;;;;;9.52;5.38;;;29.20;59.50;;;;;;5072378;28;20105;-73
2022/08/20 08:53:42;;;;;;;10.60;5.50;;;29.20;59.20;;;;;;5072176;28;20115;-74
2022/08/20 08:56:09;;;;;;;8.48;5.38;;;29.20;59.20;;;;;;5071856;28;20059;-74
2022/08/20 08:58:35;;;;;;;9.25;4.57;;;29.30;59.30;;;;;;5071838;28;20423;-74
2022/08/20 09:01:11;;;;;;;11.73;5.40;;;29.20;59.30;;;;;;5071798;28;20029;-74
2022/08/20 09:03:42;;;;;;;6.80;4.88;;;29.20;59.10;;;;;;5072097;28;20039;-75
2022/08/20 09:06:13;;;;;;;8.18;5.15;;;29.20;59.30;;;;;;5071811;28;20028;-73
2022/08/20 09:08:48;;;;;;;8.77;5.35;;;29.20;59.30;;;;;;5071648;28;20028;-74
2022/08/20 09:11:16;;;;;;;5.57;4.82;;;29.20;59.30;;;;;;5071719;28;20041;-74
2022/08/20 09:13:45;;;;;;;10.00;5.28;;;29.10;59.20;;;;;;5071679;28;20037;-74
2022/08/20 09:16:12;;;;;;;9.95;5.00;;;29.10;58.80;;;;;;5071711;28;20037;-74
2022/08/20 09:18:39;;;;;;;8.65;5.05;;;29.00;59.50;;;;;;5071779;28;20037;-74
2022/08/20 09:21:05;;;;;;;10.98;4.95;;;29.20;59.50;;;;;;5071496;28;20054;-74
2022/08/20 09:23:32;;;;;;;6.10;4.50;;;29.20;59.10;;;;;;5071457;28;20453;-74
2022/08/20 09:26:01;;;;;;;7.35;5.03;;;29.00;59.10;;;;;;5071746;28;20078;-74
2022/08/20 09:28:27;;;;;;;9.18;4.57;;;29.10;59.50;;;;;;5071295;28;20139;-74
2022/08/20 09:30:53;;;;;;;8.35;4.95;;;29.10;59.70;;;;;;5070056;28;20032;-74
2022/08/20 09:33:19;;;;;;;13.20;4.43;;;29.20;59.60;;;;;;5071368;28;20107;-73
2022/08/20 09:35:45;;;;;;;8.07;5.20;;;29.10;59.70;;;;;;5071532;28;20027;-74
2022/08/20 09:38:12;;;;;;;8.32;4.88;;;29.20;59.80;;;;;;5071265;28;20464;-74
2022/08/20 09:40:38;;;;;;;15.25;4.53;;;29.10;59.80;;;;;;5071464;28;20028;-74
2022/08/20 09:43:06;;;;;;;5.80;4.82;;;29.20;59.90;;;;;;5071734;28;20025;-74
2022/08/20 09:45:32;;;;;;;4.43;3.95;;;29.10;59.60;;;;;;5071415;28;20040;-74
2022/08/20 09:47:58;;;;;;;8.73;4.78;;;29.20;59.90;;;;;;5071052;28;20040;-74
2022/08/20 09:50:26;;;;;;;8.52;4.18;;;29.20;59.80;;;;;;5070915;28;20445;-74
2022/08/20 09:52:54;;;;;;;7.18;4.28;;;29.20;59.80;;;;;;5071380;28;20105;-74
2022/08/20 09:55:36;;;;;;;5.50;4.35;;;29.00;59.80;;;;;;5071402;28;20060;-74
2022/08/20 09:58:11;;;;;;;7.43;4.77;;;29.10;59.90;;;;;;5071570;28;20040;-74
2022/08/20 10:00:39;;;;;;;10.45;4.40;;;29.10;59.90;;;;;;5071147;28;20396;-74
2022/08/20 10:03:05;;;;;;;12.63;5.10;;;29.00;60.00;;;;;;5071402;28;20040;-74
2022/08/20 10:05:31;;;;;;;12.18;4.70;;;29.00;60.00;;;;;;5071138;28;20488;-74
2022/08/20 10:07:58;;;;;;;8.80;4.82;;;29.00;60.00;;;;;;5071040;28;20461;-74
2022/08/20 10:10:24;;;;;;;5.80;4.38;;;29.00;59.40;;;;;;5070942;28;20040;-74
2022/08/20 10:12:50;;;;;;;11.45;4.72;;;28.80;59.10;;;;;;5071042;28;20068;-74
2022/08/20 10:15:16;;;;;;;13.32;4.43;;;29.10;60.00;;;;;;5071028;28;20106;-74
2022/08/20 10:17:42;;;;;;;7.80;4.65;;;29.00;60.10;;;;;;5071236;28;20041;-74
2022/08/20 10:20:11;;;;;;;8.93;4.78;;;28.90;59.60;;;;;;5071196;28;20017;-74
2022/08/20 10:22:38;;;;;;;7.88;4.72;;;28.90;59.60;;;;;;5053544;28;20036;-74
2022/08/20 10:25:04;;;;;;;8.52;4.97;;;28.90;59.60;;;;;;5053755;28;20025;-74
2022/08/20 10:27:30;;;;;;;12.95;4.53;;;29.00;60.30;;;;;;5039054;28;20052;-74
2022/08/20 10:29:56;;;;;;;11.85;4.28;;;28.90;59.70;;;;;;5074337;28;20041;-74
2022/08/20 10:32:23;;;;;;;8.60;4.30;;;29.00;60.30;;;;;;5074671;28;20060;-73
2022/08/20 10:34:49;;;;;;;6.57;4.38;;;28.90;59.70;;;;;;5074785;28;20032;-74
2022/08/20 10:37:18;;;;;;;8.35;4.55;;;29.00;60.30;;;;;;5074527;28;20029;-74
2022/08/20 10:39:44;;;;;;;8.93;4.70;;;29.00;60.30;;;;;;5074393;28;20094;-74
2022/08/20 10:42:10;;;;;;;9.57;4.65;;;28.90;59.70;;;;;;5074335;28;20029;-74
2022/08/20 10:44:37;;;;;;;8.60;4.70;;;29.00;60.40;;;;;;5056309;28;20111;-73
2022/08/20 10:47:16;;;;;;;6.75;4.70;;;28.90;59.80;;;;;;5074410;28;20033;-73
2022/08/20 10:49:42;;;;;;;9.98;3.63;;;28.90;59.90;;;;;;5074196;28;20032;-73
2022/08/20 10:52:09;;;;;;;9.70;4.50;;;29.00;60.40;;;;;;5074316;28;20032;-74
2022/08/20 10:54:35;;;;;;;6.22;4.10;;;29.00;60.40;;;;;;5022124;28;20579;-74
2022/08/20 10:57:04;;;;;;;6.50;3.70;;;29.00;59.40;;;;;;5072869;28;20187;-74
2022/08/20 10:59:30;;;;;;;10.18;3.70;;;29.00;60.40;;;;;;5073973;28;20063;-73
2022/08/20 11:01:56;;;;;;;5.22;3.92;;;28.90;59.80;;;;;;5056118;28;20064;-74
2022/08/20 11:04:22;;;;;;;4.55;3.97;;;28.90;59.80;;;;;;5073870;28;20067;-74
2022/08/20 11:06:48;;;;;;;9.45;4.35;;;28.70;59.80;;;;;;5073987;28;20432;-74
2022/08/20 11:09:14;;;;;;;9.07;3.45;;;28.90;59.90;;;;;;5073453;28;20067;-74
2022/08/20 11:11:40;;;;;;;8.63;3.95;;;28.80;59.90;;;;;;5073493;28;20067;-74
2022/08/20 11:14:06;;;;;;;9.73;4.38;;;28.90;59.90;;;;;;5073440;28;20469;-74
2022/08/20 11:16:33;;;;;;;5.80;3.58;;;28.90;59.90;;;;;;5073570;28;20537;-75
2022/08/20 11:18:59;;;;;;;11.40;4.38;;;28.90;59.90;;;;;;5073966;28;20169;-74
2022/08/20 11:21:25;;;;;;;4.43;3.05;;;28.80;60.00;;;;;;5054570;28;20127;-74
2022/08/20 11:23:51;;;;;;;5.03;3.90;;;28.90;59.90;;;;;;5073504;28;20032;-74
2022/08/20 11:26:22;;;;;;;4.15;3.65;;;28.80;60.00;;;;;;5073601;28;20043;-74
2022/08/20 11:28:49;;;;;;;7.93;4.15;;;28.80;59.20;;;;;;5073467;28;20060;-74
2022/08/20 11:31:15;;;;;;;8.15;3.97;;;28.90;59.90;;;;;;5073536;28;20036;-74
2022/08/20 11:33:41;;;;;;;7.22;3.80;;;28.80;60.00;;;;;;5073625;28;20134;-74
2022/08/20 11:36:08;;;;;;;5.68;3.80;;;28.90;60.10;;;;;;5055227;28;20041;-74
2022/08/20 11:38:34;;;;;;;7.05;3.90;;;28.80;60.10;;;;;;5073136;28;20036;-74
2022/08/20 11:41:01;;;;;;;4.85;3.72;;;28.80;60.20;;;;;;5073027;28;20055;-75
2022/08/20 11:43:27;;;;;;;8.95;3.33;;;28.90;60.20;;;;;;5072966;28;20028;-74
2022/08/20 11:45:54;;;;;;;6.63;3.40;;;28.90;60.20;;;;;;5073061;28;20028;-74
2022/08/20 11:48:21;;;;;;;5.45;4.07;;;28.90;60.20;;;;;;5072856;28;20485;-74
2022/08/20 11:50:47;;;;;;;5.93;4.53;;;28.90;60.20;;;;;;5073046;28;20111;-73
2022/08/20 11:53:13;;;;;;;6.15;4.32;;;28.90;60.20;;;;;;5072846;28;20056;-74
2022/08/20 11:55:40;;;;;;;6.35;4.28;;;28.70;60.20;;;;;;5073022;28;20085;-74
2022/08/20 11:58:06;;;;;;;5.72;3.67;;;28.90;60.30;;;;;;5053952;28;20048;-74
2022/08/20 12:00:33;;;;;;;9.73;4.40;;;28.90;60.20;;;;;;5073074;28;20036;-75
2022/08/20 12:03:03;;;;;;;9.40;3.70;;;28.90;60.20;;;;;;5072891;28;20025;-73
2022/08/20 12:05:30;;;;;;;8.40;3.75;;;28.80;60.20;;;;;;5072819;28;20038;-74
2022/08/20 12:07:59;;;;;;;8.43;3.90;;;28.80;60.20;;;;;;5072601;28;20036;-74
2022/08/20 12:10:26;;;;;;;5.00;3.53;;;28.80;60.20;;;;;;5072834;28;20381;-74
2022/08/20 12:12:53;;;;;;;7.05;3.90;;;28.80;60.30;;;;;;5072784;28;20112;-74
2022/08/20 12:15:20;;;;;;;8.48;3.47;;;28.80;60.20;;;;;;5072574;28;20074;-74
2022/08/20 12:17:46;;;;;;;6.72;3.58;;;28.80;60.30;;;;;;5072597;28;20405;-74
2022/08/20 12:20:14;;;;;;;6.07;3.92;;;28.80;60.30;;;;;;5072483;28;20073;-74
2022/08/20 12:22:40;;;;;;;5.60;3.75;;;28.70;60.30;;;;;;5072523;28;20579;-74
2022/08/20 12:25:08;;;;;;;8.32;3.67;;;28.80;60.30;;;;;;5072274;28;20169;-74
2022/08/20 12:27:36;;;;;;;7.05;3.58;;;28.60;60.30;;;;;;5072205;28;20032;-74
2022/08/20 12:30:16;;;;;;;4.85;3.45;;;28.70;60.40;;;;;;5072489;28;20056;-74
2022/08/20 12:32:43;;;;;;;15.10;8.15;;;28.90;60.40;;;;;;5072059;28;20120;-74
2022/08/20 12:35:11;;;;;;;19.67;6.10;;;28.70;60.40;;;;;;5071986;28;20488;-74
2022/08/20 12:37:38;;;;;;;8.93;4.13;;;28.70;60.40;;;;;;5038058;28;20044;-74
2022/08/20 12:40:08;;;;;;;8.82;4.38;;;28.70;60.40;;;;;;5072100;28;20434;-74
2022/08/20 12:42:34;;;;;;;5.15;4.25;;;28.80;60.30;;;;;;5071916;28;20032;-74
2022/08/20 12:45:00;;;;;;;4.90;4.00;;;28.80;60.50;;;;;;5072195;28;20253;-74
2022/08/20 12:47:29;;;;;;;5.75;3.35;;;28.90;60.50;;;;;;5071768;28;20381;-74
2022/08/20 12:50:04;;;;;;;7.07;4.28;;;28.90;60.50;;;;;;5071672;28;20444;-74
2022/08/20 12:52:30;;;;;;;9.88;4.63;;;28.80;60.50;;;;;;5071991;28;20060;-75
2022/08/20 12:54:57;;;;;;;7.90;3.83;;;28.90;60.60;;;;;;5071987;28;20449;-75
2022/08/20 12:57:33;;;;;;;5.43;3.92;;;28.70;60.60;;;;;;5071989;28;20145;-74